Nuiqsut, Alaska
Current Conditions -  °F | °C
As of 1:53 PM on Monday 22 Dec 2014 (Local Time) from PAQT Reporting Station
Overcast Overcast  
Wind Chill: -13°   Ceiling: 6000
Heat Index:   Visibility: 8mi
Dew Point: -1°   Wind: 13mph
Humidity: 80%   Direction: 250°WSW
Pressure: 29.94"   Gusts: NA
Location:  70.22°N, 150.98°W
Report Text: PAQT 222253Z AUTO 25011KT 8SM OVC060 M16/M18 A2994 RMK AO2 SLP140 T11561183 TSNO
Loading
Personal Weather Stations






























Interactive Weather Map New forecast layout! Learn more

10-Day Weather Forecast

Advertisements
Track Severe Weather on mobile